Time;durP1;ratioP1;P1;durP2;ratioP2;P2;SDS_P1;SDS_P2;PMS_P1;PMS_P2;Temp;Humidity;BMP_temperature;BMP_pressure;BME280_temperature;BME280_humidity;BME280_pressure;Samples;Min_cycle;Max_cycle;Signal;HPM_P1;HPM_P2
2023/05/19 00:01:51;;;;;;;10.27;4.13;;;;;;;8.88;100.00;102565.28;5069068;28;20127;-51
2023/05/19 00:04:20;;;;;;;10.90;4.57;;;;;;;8.81;100.00;102569.00;5068637;28;20059;-50
2023/05/19 00:06:51;;;;;;;10.45;4.80;;;;;;;8.79;100.00;102566.44;5068761;28;20055;-51
2023/05/19 00:09:19;;;;;;;10.77;4.65;;;;;;;8.73;100.00;102560.50;5069042;28;20499;-51
2023/05/19 00:11:48;;;;;;;10.55;4.85;;;;;;;8.78;100.00;102567.31;5051476;28;20090;-49
2023/05/19 00:14:16;;;;;;;8.00;4.13;;;;;;;8.73;100.00;102560.50;5069054;28;20567;-61
2023/05/19 00:16:46;;;;;;;12.40;4.80;;;;;;;8.72;100.00;102564.88;5051892;28;20055;-51
2023/05/19 00:19:15;;;;;;;13.65;4.57;;;;;;;8.69;100.00;102566.75;5072662;28;20029;-60
2023/05/19 00:21:44;;;;;;;12.60;5.25;;;;;;;8.65;100.00;102562.50;5072894;28;20127;-61
2023/05/19 00:24:12;;;;;;;10.82;4.60;;;;;;;8.72;100.00;102564.88;5073182;28;20037;-52
2023/05/19 00:26:40;;;;;;;10.75;4.53;;;;;;;8.65;100.00;102558.09;5072824;28;20135;-49
2023/05/19 00:29:08;;;;;;;16.10;5.20;;;;;;;8.62;100.00;102564.28;5072179;28;20055;-50
2023/05/19 00:31:36;;;;;;;11.75;4.82;;;;;;;8.62;100.00;102558.19;5073295;28;20056;-50
2023/05/19 00:34:05;;;;;;;11.38;4.90;;;;;;;8.56;100.00;102559.25;5072639;28;20102;-53
2023/05/19 00:36:34;;;;;;;12.98;4.55;;;;;;;8.56;100.00;102553.13;5072216;28;20139;-61
2023/05/19 00:39:03;;;;;;;10.05;4.50;;;;;;;8.56;100.00;102553.13;5072620;28;20044;-61
2023/05/19 00:41:31;;;;;;;10.38;4.35;;;;;;;8.50;100.00;102545.44;5072604;28;20522;-51
2023/05/19 00:43:59;;;;;;;12.02;5.30;;;;;;;8.42;100.00;102545.63;5072120;28;20053;-61
2023/05/19 00:46:29;;;;;;;12.57;4.57;;;;;;;8.41;100.00;102541.28;5072507;28;20048;-51
2023/05/19 00:48:57;;;;;;;10.70;4.75;;;;;;;8.40;100.00;102542.22;5072418;28;20066;-50
2023/05/19 00:51:28;;;;;;;12.77;4.90;;;;;;;8.37;100.00;102537.03;5071598;28;20048;-49
2023/05/19 00:53:58;;;;;;;12.15;5.30;;;;;;;8.35;100.00;102531.00;5054425;28;20462;-49
2023/05/19 00:56:26;;;;;;;10.02;4.65;;;;;;;8.32;100.00;102533.66;5072689;28;20048;-60
2023/05/19 00:58:55;;;;;;;11.20;4.90;;;;;;;8.29;100.00;102535.50;5072029;28;20036;-62
2023/05/19 01:01:25;;;;;;;13.35;4.90;;;;;;;8.33;100.00;102540.63;5073047;28;20083;-62
2023/05/19 01:03:55;;;;;;;12.48;5.03;;;;;;;8.30;100.00;102536.34;5072851;28;20102;-61
2023/05/19 01:06:24;;;;;;;10.02;4.78;;;;;;;8.27;100.00;102541.69;5071997;28;20135;-60
2023/05/19 01:08:52;;;;;;;12.93;5.40;;;;;;;8.29;100.00;102539.91;5055064;28;20048;-60
2023/05/19 01:11:21;;;;;;;11.93;5.20;;;;;;;8.28;100.00;102540.78;5054560;28;20514;-61
2023/05/19 01:13:50;;;;;;;11.00;4.93;;;;;;;8.30;100.00;102538.97;5072477;28;20110;-61
2023/05/19 01:16:25;;;;;;;9.98;4.45;;;;;;;8.25;100.00;102541.72;5072292;28;20045;-61
2023/05/19 01:19:00;;;;;;;12.80;4.97;;;;;;;8.24;100.00;102541.78;5072202;28;20047;-60
2023/05/19 01:22:06;;;;;;;14.15;5.00;;;;;;;8.12;100.00;102535.09;5071214;28;20495;-61
2023/05/19 01:24:56;;;;;;;10.90;5.32;;;;;;;8.12;100.00;102545.59;5072204;28;20387;-62
2023/05/19 01:27:51;;;;;;;11.23;4.68;;;;;;;8.12;100.00;102541.19;5072505;28;20058;-60
2023/05/19 01:30:30;;;;;;;15.10;5.75;;;;;;;8.04;100.00;102540.56;5070601;28;20052;-50
2023/05/19 01:33:01;;;;;;;12.57;5.07;;;;;;;8.08;100.00;102543.97;5072074;28;20048;-60
2023/05/19 01:35:31;;;;;;;12.70;5.60;;;;;;;8.01;100.00;102540.63;5071140;28;20231;-60
2023/05/19 01:38:01;;;;;;;13.13;5.88;;;;;;;8.02;100.00;102546.75;5071868;28;20440;-48
2023/05/19 01:40:30;;;;;;;16.95;6.18;;;;;;;8.00;100.00;102541.53;5071789;28;20049;-60
2023/05/19 01:43:00;;;;;;;12.43;5.75;;;;;;;7.94;100.00;102545.19;5071791;28;20041;-52
2023/05/19 01:45:32;;;;;;;13.98;5.43;;;;;;;8.00;100.00;102549.41;5070364;28;20208;-49
2023/05/19 01:48:03;;;;;;;11.60;5.20;;;;;;;8.00;100.00;102543.31;5071082;28;20044;-52
2023/05/19 01:50:32;;;;;;;9.27;5.22;;;;;;;7.93;100.00;102543.50;5070290;28;20399;-48
2023/05/19 01:53:02;;;;;;;13.60;5.32;;;;;;;7.91;100.00;102547.91;5071467;28;20037;-49
2023/05/19 01:55:32;;;;;;;12.95;5.90;;;;;;;7.91;100.00;102547.91;5070648;28;20049;-51
2023/05/19 01:58:09;;;;;;;12.80;5.28;;;;;;;7.85;100.00;102536.72;5053349;28;20511;-50
2023/05/19 02:00:57;;;;;;;10.75;5.85;;;;;;;7.87;100.00;102540.19;5070062;28;20106;-48
2023/05/19 02:03:37;;;;;;;12.57;5.15;;;;;;;7.86;100.00;102535.81;5071229;28;20406;-48
2023/05/19 02:06:19;;;;;;;11.27;5.65;;;;;;;7.82;100.00;102535.03;5070292;28;20119;-48
2023/05/19 02:08:56;;;;;;;13.90;5.78;;;;;;;7.80;100.00;102531.63;5070870;28;20523;-49
2023/05/19 02:11:31;;;;;;;11.07;5.57;;;;;;;7.78;100.00;102533.41;5071308;28;20105;-49
2023/05/19 02:14:02;;;;;;;14.90;5.65;;;;;;;7.76;100.00;102528.22;5070451;28;20127;-47
2023/05/19 02:16:33;;;;;;;11.02;5.63;;;;;;;7.77;100.00;102529.06;5070616;28;20531;-50
2023/05/19 02:19:02;;;;;;;11.70;5.63;;;;;;;7.73;100.00;102528.28;5070595;28;20106;-51
2023/05/19 02:21:30;;;;;;;12.43;5.53;;;;;;;7.71;100.00;102522.22;5070587;28;20570;-51
2023/05/19 02:23:58;;;;;;;16.42;6.13;;;;;;;7.70;100.00;102523.16;5073860;28;20118;-50
2023/05/19 02:26:26;;;;;;;16.75;6.63;;;;;;;7.68;100.00;102516.22;5071901;28;20508;-48
2023/05/19 02:28:57;;;;;;;12.35;5.93;;;;;;;7.70;100.00;102520.53;5069840;28;20098;-50
2023/05/19 02:31:25;;;;;;;14.20;6.30;;;;;;;7.68;100.00;102518.84;5052314;28;20052;-53
2023/05/19 02:33:55;;;;;;;15.85;6.05;;;;;;;7.79;100.00;102524.66;5070487;28;20044;-51
2023/05/19 02:36:25;;;;;;;13.88;6.50;;;;;;;7.69;100.00;102520.53;5069871;28;20048;-52
2023/05/19 02:38:53;;;;;;;13.95;5.93;;;;;;;7.71;100.00;102516.13;5070272;28;20040;-50
2023/05/19 02:41:21;;;;;;;16.23;6.85;;;;;;;7.70;100.00;102515.28;5052688;28;20074;-50
2023/05/19 02:43:49;;;;;;;12.10;6.05;;;;;;;7.70;100.00;102512.66;5072391;28;20051;-48
2023/05/19 02:46:19;;;;;;;13.55;5.95;;;;;;;7.64;100.00;102506.72;5072969;28;20488;-50
2023/05/19 02:48:47;;;;;;;15.05;7.03;;;;;;;7.55;100.00;102513.94;5069837;28;20045;-52
2023/05/19 02:51:16;;;;;;;13.38;6.05;;;;;;;7.46;100.00;102511.53;5069448;28;20418;-51
2023/05/19 02:53:44;;;;;;;13.68;6.63;;;;;;;7.55;100.00;102506.06;5069966;28;20052;-50
2023/05/19 02:56:12;;;;;;;13.90;6.30;;;;;;;7.53;100.00;102513.09;5072590;28;20084;-60
2023/05/19 02:58:41;;;;;;;16.02;6.85;;;;;;;7.55;100.00;102503.47;5073117;28;20052;-60
2023/05/19 03:01:10;;;;;;;13.77;6.90;;;;;;;7.48;100.00;102501.03;5072274;28;20055;-49
2023/05/19 03:03:38;;;;;;;16.17;6.35;;;;;;;7.49;100.00;102497.53;5070352;28;20044;-49
2023/05/19 03:06:07;;;;;;;14.27;6.07;;;;;;;7.53;100.00;102500.00;5068584;28;20060;-50
2023/05/19 03:08:37;;;;;;;14.98;6.35;;;;;;;7.63;100.00;102499.78;5069957;28;20062;-60
2023/05/19 03:11:09;;;;;;;15.10;6.70;;;;;;;7.54;100.00;102506.97;5070799;28;20049;-61
2023/05/19 03:13:37;;;;;;;15.02;6.47;;;;;;;7.47;100.00;102500.16;5070327;28;20872;-59
2023/05/19 03:16:06;;;;;;;13.98;6.32;;;;;;;7.41;100.00;102501.16;5070460;28;20399;-60
2023/05/19 03:18:35;;;;;;;20.83;6.50;;;;;;;7.40;100.00;102501.22;5070078;28;20139;-47
2023/05/19 03:21:07;;;;;;;16.45;6.80;;;;;;;7.33;100.00;102510.97;5068444;28;20105;-48
2023/05/19 03:23:36;;;;;;;15.27;6.60;;;;;;;7.36;100.00;102510.91;5069687;28;20053;-51
2023/05/19 03:26:05;;;;;;;14.73;7.30;;;;;;;7.36;100.00;102510.91;5071883;28;20044;-51
2023/05/19 03:28:33;;;;;;;17.88;7.35;;;;;;;7.35;100.00;102508.31;5069914;28;20576;-51
2023/05/19 03:31:01;;;;;;;15.55;6.53;;;;;;;7.35;100.00;102509.19;5069881;28;20040;-61
2023/05/19 03:33:29;;;;;;;15.85;6.95;;;;;;;7.36;100.00;102502.19;5071632;28;20036;-60
2023/05/19 03:35:57;;;;;;;14.20;7.18;;;;;;;7.31;100.00;102504.94;5050886;28;20122;-60
2023/05/19 03:38:26;;;;;;;15.23;7.40;;;;;;;7.34;100.00;102509.25;5069947;28;20052;-60
2023/05/19 03:40:55;;;;;;;15.73;7.18;;;;;;;7.26;100.00;102507.66;5069599;28;20043;-59
2023/05/19 03:43:23;;;;;;;14.38;7.38;;;;;;;7.20;100.00;102507.81;5069981;28;20405;-60
2023/05/19 03:45:52;;;;;;;15.05;7.10;;;;;;;7.26;100.00;102515.50;5069953;28;20092;-60
2023/05/19 03:48:20;;;;;;;16.95;7.15;;;;;;;7.28;100.00;102518.09;5070314;28;20049;-61
2023/05/19 03:50:51;;;;;;;16.13;7.25;;;;;;;7.29;100.00;102506.72;5068611;28;20041;-60
2023/05/19 03:53:19;;;;;;;17.60;8.18;;;;;;;7.26;100.00;102512.03;5069958;28;20139;-61
2023/05/19 03:55:48;;;;;;;17.63;7.50;;;;;;;7.22;100.00;102507.78;5070224;28;20060;-61
2023/05/19 03:58:17;;;;;;;19.60;7.75;;;;;;;7.22;100.00;102513.00;5069861;28;20055;-60
2023/05/19 04:00:46;;;;;;;16.02;7.32;;;;;;;7.25;100.00;102515.53;5069058;28;20047;-61
2023/05/19 04:03:14;;;;;;;16.23;7.22;;;;;;;7.24;100.00;102521.66;5070325;28;20053;-59
2023/05/19 04:05:43;;;;;;;15.27;7.70;;;;;;;7.20;100.00;102518.28;5054522;28;20084;-61
2023/05/19 04:08:11;;;;;;;15.40;7.68;;;;;;;7.18;100.00;102524.44;5072423;28;20058;-59
2023/05/19 04:10:39;;;;;;;16.95;7.88;;;;;;;7.21;100.00;102524.38;5071548;28;20068;-60
2023/05/19 04:13:07;;;;;;;16.42;7.68;;;;;;;7.26;100.00;102531.19;5069707;28;20530;-59
2023/05/19 04:15:37;;;;;;;14.05;7.32;;;;;;;7.24;100.00;102525.16;5068900;28;20499;-60
2023/05/19 04:18:05;;;;;;;17.55;7.28;;;;;;;7.30;100.00;102525.91;5069836;28;20127;-60
2023/05/19 04:20:36;;;;;;;16.63;7.45;;;;;;;7.31;100.00;102527.59;5068116;28;20043;-60
2023/05/19 04:23:04;;;;;;;15.05;7.60;;;;;;;7.30;100.00;102531.16;5070594;28;20052;-60
2023/05/19 04:25:32;;;;;;;18.27;7.65;;;;;;;7.24;100.00;102532.13;5070584;28;20098;-60
2023/05/19 04:28:02;;;;;;;14.98;7.70;;;;;;;7.30;100.00;102531.16;5070319;28;20064;-60
2023/05/19 04:30:30;;;;;;;14.27;6.97;;;;;;;7.33;100.00;102531.91;5071946;28;20396;-60
2023/05/19 04:33:00;;;;;;;16.45;7.10;;;;;;;7.45;100.00;102525.53;5071730;28;20044;-60
2023/05/19 04:35:28;;;;;;;14.40;7.60;;;;;;;7.41;100.00;102526.50;5068197;28;20049;-59
2023/05/19 04:37:56;;;;;;;17.27;7.30;;;;;;;7.47;100.00;102523.72;5069637;28;20037;-48
2023/05/19 04:40:29;;;;;;;15.85;7.63;;;;;;;7.39;100.00;102517.81;5068494;28;20048;-49
2023/05/19 04:43:00;;;;;;;14.38;6.97;;;;;;;7.42;100.00;102518.59;5069167;28;20045;-48
2023/05/19 04:45:31;;;;;;;14.95;6.82;;;;;;;7.48;100.00;102520.19;5067776;28;20076;-50
2023/05/19 04:48:01;;;;;;;15.70;7.50;;;;;;;7.49;100.00;102516.69;5068664;28;20052;-58
2023/05/19 04:50:31;;;;;;;14.20;6.88;;;;;;;7.49;100.00;102515.84;5069008;28;20045;-61
2023/05/19 04:53:00;;;;;;;18.02;7.63;;;;;;;7.57;100.00;102512.13;5069893;28;20045;-61
2023/05/19 04:55:28;;;;;;;14.55;6.85;;;;;;;7.56;100.00;102513.00;5068967;28;20052;-60
2023/05/19 04:57:58;;;;;;;12.45;7.13;;;;;;;7.61;100.00;102511.13;5069905;28;20068;-60
2023/05/19 05:00:27;;;;;;;13.57;7.38;;;;;;;7.57;100.00;102514.72;5069534;28;20131;-61
2023/05/19 05:02:56;;;;;;;14.48;7.53;;;;;;;7.56;100.00;102509.53;5070501;28;20041;-60
2023/05/19 05:05:26;;;;;;;15.77;7.88;;;;;;;7.64;100.00;102509.34;5074406;28;20048;-60
2023/05/19 05:07:54;;;;;;;12.85;6.82;;;;;;;7.71;100.00;102516.13;5074850;28;20059;-61
2023/05/19 05:10:22;;;;;;;11.52;7.20;;;;;;;7.75;100.00;102517.78;5072998;28;20109;-61
2023/05/19 05:12:51;;;;;;;13.55;8.35;;;;;;;7.78;100.00;102510.72;5072583;28;20052;-60
2023/05/19 05:15:20;;;;;;;13.55;7.55;;;;;;;7.87;100.00;102514.81;5072800;28;20048;-60
2023/05/19 05:17:49;;;;;;;16.30;6.97;;;;;;;7.96;100.00;102521.56;5072521;28;20059;-60
2023/05/19 05:20:21;;;;;;;13.27;7.07;;;;;;;8.02;100.00;102520.56;5072148;28;20135;-60
2023/05/19 05:22:51;;;;;;;15.18;7.10;;;;;;;8.06;100.00;102522.19;5072846;28;20505;-59
2023/05/19 05:25:21;;;;;;;13.63;7.60;;;;;;;8.12;100.00;102522.00;5072768;28;20044;-60
2023/05/19 05:27:49;;;;;;;11.95;6.32;;;;;;;8.09;100.00;102525.56;5072594;28;20057;-60
2023/05/19 05:30:17;;;;;;;15.48;7.50;;;;;;;8.17;100.00;102524.50;5071743;28;20135;-60
2023/05/19 05:32:45;;;;;;;12.25;6.50;;;;;;;8.28;100.00;102531.16;5072300;28;20045;-60
2023/05/19 05:35:14;;;;;;;16.67;7.03;;;;;;;8.37;100.00;102529.16;5071692;28;20117;-48
2023/05/19 05:37:42;;;;;;;15.07;7.50;;;;;;;8.48;100.00;102535.00;5054039;28;20049;-53
2023/05/19 05:40:14;;;;;;;13.77;6.90;;;;;;;8.56;100.00;102532.13;5071963;28;20115;-60
2023/05/19 05:42:43;;;;;;;14.30;7.78;;;;;;;8.60;100.00;102534.66;5071959;28;20041;-60
2023/05/19 05:45:11;;;;;;;12.30;6.72;;;;;;;8.66;100.00;102527.47;5071354;28;20576;-61
2023/05/19 05:47:40;;;;;;;15.48;7.35;;;;;;;8.74;100.00;102531.59;5072020;28;20053;-60
2023/05/19 05:50:10;;;;;;;15.95;6.97;;;;;;;8.70;100.00;102534.34;5071282;28;20056;-61
2023/05/19 05:52:41;;;;;;;15.15;7.28;;;;;;;8.76;100.00;102529.78;5072188;28;20063;-60
2023/05/19 05:55:10;;;;;;;14.25;7.05;;;;;;;8.86;100.00;102530.38;5071564;28;20419;-60
2023/05/19 05:57:40;;;;;;;13.65;7.00;;;;;;;8.93;100.00;102534.50;5071694;28;20048;-61
2023/05/19 06:00:14;;;;;;;14.27;6.80;;;;;;;9.03;100.00;102537.69;5070305;28;20683;-61
2023/05/19 06:02:46;;;;;;;17.55;7.15;;;;;;;9.11;100.00;102537.47;5071286;28;20044;-51
2023/05/19 06:05:15;;;;;;;13.18;6.75;;;;;;;9.23;100.00;102542.31;5070283;28;20048;-48
2023/05/19 06:07:43;;;;;;;14.93;6.53;;;;;;;9.34;100.00;102536.72;5071427;28;20117;-61
2023/05/19 06:10:12;;;;;;;14.13;7.28;;;;;;;9.45;100.00;102539.00;5071434;28;20155;-60
2023/05/19 06:12:42;;;;;;;13.57;6.95;;;;;;;9.60;100.00;102527.97;5071381;28;20078;-61
2023/05/19 06:15:10;;;;;;;11.60;6.18;;;;;;;9.70;100.00;102527.66;5070114;28;20508;-48
2023/05/19 06:17:39;;;;;;;12.27;6.55;;;;;;;9.79;100.00;102530.81;5071487;28;20148;-62
2023/05/19 06:20:08;;;;;;;13.13;6.65;;;;;;;9.86;100.00;102525.31;5069476;28;20419;-50
2023/05/19 06:22:37;;;;;;;12.18;6.47;;;;;;;10.04;100.00;102521.19;5070691;28;20106;-51
2023/05/19 06:25:07;;;;;;;14.63;7.22;;;;;;;10.14;100.00;102526.06;5070372;28;20083;-52
2023/05/19 06:27:36;;;;;;;12.25;6.13;;;;;;;10.26;100.00;102526.50;5071053;28;20052;-47
2023/05/19 06:30:07;;;;;;;11.57;7.03;;;;;;;10.41;100.00;102528.59;5069890;28;20044;-49
2023/05/19 06:32:35;;;;;;;14.15;6.60;;;;;;;10.61;100.00;102527.00;5052984;28;20060;-51
2023/05/19 06:35:04;;;;;;;12.45;6.07;;;;;;;10.75;100.00;102534.34;5069225;28;20110;-50
2023/05/19 06:37:32;;;;;;;10.75;6.28;;;;;;;10.86;100.00;102526.88;5052421;28;20093;-51
2023/05/19 06:40:00;;;;;;;9.27;5.18;;;;;;;11.02;100.00;102526.28;5070400;28;20045;-50
2023/05/19 06:42:29;;;;;;;13.73;6.32;;;;;;;11.13;100.00;102526.69;5070462;28;20127;-51
2023/05/19 06:45:00;;;;;;;14.20;6.65;;;;;;;11.31;100.00;102525.94;5069733;28;20119;-52
2023/05/19 06:47:29;;;;;;;14.55;6.13;;;;;;;11.37;100.00;102523.97;5070164;28;20048;-49
2023/05/19 06:49:57;;;;;;;13.02;5.45;;;;;;;11.43;100.00;102524.56;5050807;28;20048;-47
2023/05/19 06:52:26;;;;;;;14.70;6.22;;;;;;;11.53;100.00;102527.66;5070330;28;20040;-51
2023/05/19 06:54:56;;;;;;;13.13;5.97;;;;;;;11.74;100.00;102528.53;5069887;28;20062;-51
2023/05/19 06:57:24;;;;;;;9.88;5.35;;;;;;;11.79;100.00;102530.97;5070181;28;20048;-49
2023/05/19 06:59:53;;;;;;;15.15;5.55;;;;;;;11.91;100.00;102532.22;5069033;28;20040;-52
2023/05/19 07:02:21;;;;;;;11.63;5.30;;;;;;;12.02;100.00;102529.13;5069880;28;20044;-51
2023/05/19 07:04:52;;;;;;;10.07;5.43;;;;;;;12.09;100.00;102520.03;5068952;28;20748;-53
2023/05/19 07:07:21;;;;;;;13.57;5.35;;;;;;;12.27;100.00;102521.84;5070274;28;20052;-51
2023/05/19 07:09:49;;;;;;;10.55;4.95;;;;;;;12.36;100.00;102524.97;5051629;28;20044;-50
2023/05/19 07:12:17;;;;;;;11.57;5.53;;;;;;;12.51;100.00;102525.09;5069888;28;20051;-52
2023/05/19 07:14:45;;;;;;;11.13;5.07;;;;;;;12.63;100.00;102523.69;5068943;28;20044;-51
2023/05/19 07:17:14;;;;;;;9.25;4.82;;;;;;;12.67;100.00;102525.25;5069703;28;20044;-52
2023/05/19 07:19:42;;;;;;;12.43;4.63;;;;;;;12.64;100.00;102520.13;5068881;28;20542;-49
2023/05/19 07:22:12;;;;;;;13.52;4.68;;;;;;;12.72;100.00;102527.69;5069634;28;20123;-51
2023/05/19 07:24:40;;;;;;;11.73;4.88;;;;;;;12.87;100.00;102527.88;5069099;28;20041;-63
2023/05/19 07:27:09;;;;;;;9.30;4.72;;;;;;;13.07;100.00;102533.03;5068957;28;20040;-51
2023/05/19 07:29:37;;;;;;;11.20;4.82;;;;;;;13.21;100.00;102531.50;5068913;28;20511;-52
2023/05/19 07:32:06;;;;;;;10.43;4.47;;;;;;;13.28;100.00;102527.59;5069769;28;20053;-49
2023/05/19 07:34:35;;;;;;;11.00;4.18;;;;;;;13.38;100.00;102530.69;5068637;28;20083;-50
2023/05/19 07:37:03;;;;;;;10.35;4.25;;;;;;;13.56;100.00;102529.75;5069879;28;20054;-52
2023/05/19 07:39:33;;;;;;;10.93;5.00;;;;;;;13.77;100.00;102529.56;5069071;28;20044;-52
2023/05/19 07:42:02;;;;;;;11.65;5.00;;;;;;;13.81;100.00;102532.00;5069443;28;20407;-51
2023/05/19 07:44:33;;;;;;;10.77;5.57;;;;;;;13.96;100.00;102524.19;5068694;28;20531;-50
2023/05/19 07:47:01;;;;;;;11.68;4.75;;;;;;;14.25;100.00;102519.13;5069308;28;20443;-52
2023/05/19 07:49:29;;;;;;;13.85;4.63;;;;;;;14.41;100.00;102522.66;5068078;28;20052;-49
2023/05/19 07:51:57;;;;;;;10.10;4.65;;;;;;;14.48;100.00;102526.66;5069602;28;20127;-56
2023/05/19 07:54:26;;;;;;;13.63;5.03;;;;;;;14.75;100.00;102525.25;5068789;28;20066;-51
2023/05/19 07:56:55;;;;;;;14.65;4.68;;;;;;;14.81;100.00;102523.09;5068607;28;20067;-63
2023/05/19 07:59:24;;;;;;;10.57;5.28;;;;;;;14.97;100.00;102520.44;5067993;28;20579;-51
2023/05/19 08:01:52;;;;;;;10.70;4.72;;;;;;;15.07;100.00;102520.75;5068205;28;20045;-52
2023/05/19 08:04:20;;;;;;;10.93;4.95;;;;;;;15.18;100.00;102522.78;5067911;28;20471;-52
2023/05/19 08:06:49;;;;;;;12.88;4.53;;;;;;;15.41;100.00;102512.66;5068261;28;20040;-52
2023/05/19 08:09:17;;;;;;;10.05;4.50;;;;;;;15.54;100.00;102509.16;5050052;28;20263;-51
2023/05/19 08:11:46;;;;;;;13.48;4.00;;;;;;;15.77;100.00;102511.38;5050347;28;20436;-53
2023/05/19 08:14:16;;;;;;;9.15;3.47;;;;;;;15.91;100.00;102508.78;5067569;28;20044;-63
2023/05/19 08:16:45;;;;;;;9.57;3.58;;;;;;;16.17;100.00;102504.50;5067836;28;20395;-64
2023/05/19 08:19:16;;;;;;;11.68;4.40;;;;;;;16.39;100.00;102503.97;5068196;28;20045;-63
2023/05/19 08:21:44;;;;;;;10.77;4.30;;;;;;;16.60;100.00;102498.22;5067958;28;20109;-62
2023/05/19 08:24:12;;;;;;;11.15;3.53;;;;;;;16.73;100.00;102503.63;5067942;28;20070;-63
2023/05/19 08:26:40;;;;;;;9.63;3.60;;;;;;;16.80;100.00;102501.41;5068249;28;20048;-62
2023/05/19 08:29:09;;;;;;;10.55;3.03;;;;;;;16.92;100.00;102499.75;5067135;28;20055;-62
2023/05/19 08:31:38;;;;;;;7.95;3.28;;;;;;;17.07;100.00;102496.13;5067865;28;20620;-62
2023/05/19 08:34:06;;;;;;;7.90;3.15;;;;;;;17.24;100.00;102492.31;5067817;28;20386;-63
2023/05/19 08:36:34;;;;;;;8.65;2.92;;;;;;;17.44;100.00;102490.97;5067692;28;20390;-63
2023/05/19 08:39:03;;;;;;;8.18;2.88;;;;;;;17.58;96.07;102482.03;5070505;28;20049;-63
2023/05/19 08:41:31;;;;;;;8.73;2.92;;;;;;;17.64;97.10;102475.44;5071231;28;20051;-50
2023/05/19 08:43:59;;;;;;;9.80;2.88;;;;;;;17.84;99.67;102480.19;5070532;28;20036;-51
2023/05/19 08:46:29;;;;;;;8.63;2.90;;;;;;;18.04;99.35;102467.34;5071142;28;20143;-49
2023/05/19 08:49:05;;;;;;;10.80;3.17;;;;;;;18.28;95.74;102464.69;5071009;28;20049;-52
2023/05/19 08:51:40;;;;;;;9.18;2.88;;;;;;;18.55;89.85;102466.31;5070191;28;20040;-53
2023/05/19 08:54:14;;;;;;;8.33;2.60;;;;;;;18.79;84.81;102462.78;5030296;28;1163511;-53
2023/05/19 08:56:44;;;;;;;9.45;3.25;;;;;;;18.92;81.76;102458.28;5073037;28;20044;-62
2023/05/19 08:59:13;;;;;;;7.63;2.58;;;;;;;18.92;74.87;102456.47;5071907;28;20541;-53
2023/05/19 09:01:44;;;;;;;9.07;3.00;;;;;;;19.22;73.38;102448.91;5071978;28;20048;-63
2023/05/19 09:04:15;;;;;;;8.18;2.60;;;;;;;19.35;73.30;102447.00;5072155;28;20040;-64
2023/05/19 09:06:43;;;;;;;6.72;2.17;;;;;;;19.53;70.87;102443.88;5072381;28;20461;-54
2023/05/19 09:09:15;;;;;;;9.23;2.22;;;;;;;19.37;65.85;102444.22;5072256;28;20079;-52
2023/05/19 09:11:46;;;;;;;6.65;2.60;;;;;;;19.45;64.10;102443.63;5072539;28;20048;-53
2023/05/19 09:14:14;;;;;;;7.57;2.33;;;;;;;19.42;62.36;102440.22;5071893;28;20049;-64
2023/05/19 09:16:43;;;;;;;11.70;2.40;;;;;;;19.78;64.13;102450.78;5053822;28;20048;-54
2023/05/19 09:19:15;;;;;;;9.88;2.10;;;;;;;19.83;63.30;102431.78;5071797;28;20048;-52
2023/05/19 09:21:44;;;;;;;10.45;2.13;;;;;;;19.74;61.05;102442.19;5071770;28;20123;-54
2023/05/19 09:24:12;;;;;;;5.75;2.08;;;;;;;19.93;58.65;102432.72;5071528;28;20036;-54
2023/05/19 09:26:42;;;;;;;7.80;2.10;;;;;;;19.93;55.98;102435.41;5072170;28;20394;-64
2023/05/19 09:29:13;;;;;;;6.13;1.77;;;;;;;20.07;55.44;102429.81;5071187;28;20048;-64
2023/05/19 09:31:49;;;;;;;6.80;2.00;;;;;;;20.18;54.85;102420.91;5071783;28;20082;-64
2023/05/19 09:34:19;;;;;;;8.48;1.90;;;;;;;20.23;53.28;102425.88;5071151;28;20048;-64
2023/05/19 09:36:49;;;;;;;7.13;1.95;;;;;;;20.60;52.36;102422.84;5071582;28;20503;-66
2023/05/19 09:39:18;;;;;;;7.93;2.10;;;;;;;20.19;52.52;102421.75;5071664;28;20109;-64
2023/05/19 09:41:47;;;;;;;9.10;2.17;;;;;;;20.47;52.74;102422.19;5053878;28;20107;-53
2023/05/19 09:44:22;;;;;;;10.25;2.72;;;;;;;20.57;51.71;102421.28;5053352;28;20045;-53
2023/05/19 09:46:52;;;;;;;6.68;2.13;;;;;;;20.62;50.21;102426.25;5071769;28;20430;-65
2023/05/19 09:49:23;;;;;;;6.43;1.88;;;;;;;20.74;50.49;102419.06;5069388;28;20427;-54
2023/05/19 09:51:54;;;;;;;7.85;2.13;;;;;;;20.83;47.76;102420.09;5070984;28;20048;-53
2023/05/19 09:54:23;;;;;;;8.95;2.40;;;;;;;20.48;48.69;102410.50;5052958;28;20132;-55
2023/05/19 09:56:57;;;;;;;7.30;2.38;;;;;;;20.82;49.12;102419.25;5071468;28;20689;-53
2023/05/19 09:59:26;;;;;;;5.80;1.80;;;;;;;21.15;49.51;102419.22;5069961;28;20059;-54
2023/05/19 10:01:58;;;;;;;6.10;1.80;;;;;;;21.01;48.58;102417.69;5070889;28;20496;-53
2023/05/19 10:04:30;;;;;;;6.85;2.05;;;;;;;21.19;48.66;102413.44;5070163;28;20416;-54
2023/05/19 10:06:59;;;;;;;8.18;2.33;;;;;;;21.34;48.84;102413.94;5071786;28;20575;-52
2023/05/19 10:09:29;;;;;;;9.75;2.33;;;;;;;21.31;47.05;102421.38;5070558;28;20090;-55
2023/05/19 10:11:58;;;;;;;8.30;2.20;;;;;;;21.39;49.74;102427.78;5071422;28;20067;-54
2023/05/19 10:14:28;;;;;;;7.35;2.22;;;;;;;21.49;48.90;102418.94;5069991;28;20098;-53
2023/05/19 10:16:57;;;;;;;7.22;1.92;;;;;;;21.67;47.71;102412.00;5071252;28;20036;-55
2023/05/19 10:19:28;;;;;;;10.50;2.75;;;;;;;21.89;47.91;102410.94;5070567;28;20507;-53
2023/05/19 10:21:56;;;;;;;6.40;1.80;;;;;;;22.16;49.84;102404.09;5071139;28;20443;-54
2023/05/19 10:24:25;;;;;;;6.80;1.90;;;;;;;21.83;47.60;102399.94;5070087;28;20098;-54
2023/05/19 10:26:59;;;;;;;9.45;2.00;;;;;;;21.45;48.09;102400.47;5070749;28;20128;-55
2023/05/19 10:29:31;;;;;;;8.15;2.25;;;;;;;21.67;48.16;102390.59;5070080;28;20465;-53
2023/05/19 10:32:02;;;;;;;7.35;2.10;;;;;;;21.72;46.12;102393.72;5070680;28;20048;-52
2023/05/19 10:34:59;;;;;;;6.37;2.00;;;;;;;21.96;46.88;102379.09;5067664;28;20051;-53
2023/05/19 10:37:39;;;;;;;7.50;2.00;;;;;;;21.96;45.39;102384.47;5051000;28;20047;-54
2023/05/19 10:40:13;;;;;;;8.00;2.13;;;;;;;21.99;46.42;102384.22;5050451;28;20048;-53
2023/05/19 10:42:53;;;;;;;8.88;2.20;;;;;;;21.89;46.17;102389.53;5051008;28;20048;-53
2023/05/19 10:45:27;;;;;;;7.85;1.98;;;;;;;21.69;47.08;102388.66;5049755;28;20051;-52
2023/05/19 10:47:55;;;;;;;7.10;2.10;;;;;;;21.95;46.60;102383.63;5050407;28;20067;-53
2023/05/19 10:50:24;;;;;;;8.18;2.00;;;;;;;21.54;46.64;102380.13;5032309;28;20080;-52
2023/05/19 10:52:54;;;;;;;8.50;2.17;;;;;;;21.54;45.16;102382.81;5050598;28;20084;-53
2023/05/19 10:55:47;;;;;;;6.30;1.75;;;;;;;21.89;44.82;102386.00;5050098;28;20107;-54
2023/05/19 10:58:15;;;;;;;6.78;1.73;;;;;;;22.24;45.98;102384.66;5050709;28;20080;-51
2023/05/19 11:00:43;;;;;;;6.45;1.95;;;;;;;22.10;43.66;102384.09;5049212;28;20036;-64
2023/05/19 11:03:13;;;;;;;7.40;2.40;;;;;;;22.67;43.50;102380.72;5049859;28;20056;-65
2023/05/19 11:05:49;;;;;;;;;;;;;;;22.97;41.56;102373.47;5049265;28;20043;-52
2023/05/19 11:08:32;;;;;;;9.35;2.38;;;;;;;22.82;40.49;102369.56;5050108;28;19921;-54
2023/05/19 11:11:13;;;;;;;7.15;2.40;;;;;;;23.12;41.01;102376.53;5050057;28;20103;-54
2023/05/19 11:13:47;;;;;;;8.65;2.35;;;;;;;23.03;41.07;102370.22;5049567;28;20400;-56
2023/05/19 11:16:20;;;;;;;10.25;2.63;;;;;;;23.10;40.98;102375.84;5049606;28;20408;-53
2023/05/19 11:18:49;;;;;;;6.80;2.20;;;;;;;23.20;40.35;102370.47;5049694;28;20425;-55
2023/05/19 11:21:21;;;;;;;12.75;2.40;;;;;;;23.69;41.67;102360.34;5048503;28;20116;-55
2023/05/19 11:23:51;;;;;;;9.20;2.20;;;;;;;23.35;39.00;102369.00;5049271;28;20488;-51
2023/05/19 11:26:42;;;;;;;7.18;2.03;;;;;;;23.76;39.04;102368.66;5049494;28;20131;-54
2023/05/19 11:29:11;;;;;;;8.10;2.22;;;;;;;24.14;40.80;102369.44;5048693;28;20106;-54
2023/05/19 11:31:40;;;;;;;6.25;1.85;;;;;;;23.88;38.25;102362.13;5049333;28;20085;-56